Saturday, January 20, 2018, 10:11 AM EST
Back to Local

KELM, Elmira County Airport

Location: Horseheads, NY, United States Lat: 42.167
Local Time: 10:11 AM EST (15:11 GMT) Lon: -76.9
Time Zone: US/Eastern Elev: 954 ft

Show me the last for .
Show Decoded

2018-01-20 09:53 METAR KELM 201453Z 25014G19KT 10SM CLR 04/M04 A2986 RMK AO2 SLP120 T00441039
                 51020 =
2018-01-20 08:53 METAR KELM 201353Z 24011KT 10SM CLR 03/M04 A2984 RMK AO2 SLP111 T00331044 =
2018-01-20 07:53 METAR KELM 201253Z 25008KT 10SM CLR 03/M05 A2983 RMK AO2 SLP110 T00331050 =
2018-01-20 06:53 METAR KELM 201153Z 23009KT 10SM CLR 02/M06 A2980 RMK AO2 SLP099 T00221056 10033
                 20017 53012 =
2018-01-20 05:53 METAR KELM 201053Z 24007KT 10SM CLR 02/M06 A2979 RMK AO2 SLP093 T00221056 =
2018-01-20 04:53 METAR KELM 200953Z AUTO 23011KT 10SM CLR 03/M06 A2975 RMK AO2 SLP082 T00281056 =
2018-01-20 03:53 METAR KELM 200853Z AUTO 25008KT 10SM CLR 02/M06 A2977 RMK AO2 SLP086 T00221061
                 56007 =
2018-01-20 01:53 METAR KELM 200653Z AUTO 23010KT 10SM CLR 03/M06 A2978 RMK AO2 SLP091 T00281061 =
2018-01-20 00:53 METAR KELM 200553Z AUTO 24009KT 10SM CLR 03/M06 A2979 RMK AO2 SLP095 T00331061
                 10033 20000 58016 =
2018-01-19 23:53 METAR KELM 200453Z AUTO 24009KT 10SM CLR 03/M06 A2981 RMK AO2 SLP102 T00331061
                 400561172 =
2018-01-19 22:53 METAR KELM 200353Z 26005KT 10SM CLR 02/M06 A2982 RMK AO2 SLP107 T00171061 =
2018-01-19 21:53 METAR KELM 200253Z 25006KT 10SM CLR 01/M07 A2984 RMK AO2 SLP116 T00061067 56010
                 =
2018-01-19 20:53 METAR KELM 200153Z 23009KT 10SM CLR 02/M07 A2985 RMK AO2 SLP120 T00221067 =
2018-01-19 19:53 METAR KELM 200053Z 24008KT 10SM CLR 02/M07 A2986 RMK AO2 SLP123 T00221067 =
2018-01-19 18:53 METAR KELM 192353Z 23010KT 10SM CLR 03/M06 A2987 RMK AO2 SLP129 T00281061 10056
                 20011 55001 =
2018-01-19 17:53 METAR KELM 192253Z 24009KT 10SM CLR 04/M07 A2986 RMK AO2 SLP126 T00391067 =
2018-01-19 16:53 METAR KELM 192153Z 23008KT 10SM CLR 04/M06 A2987 RMK AO2 SLP128 T00391061 =
2018-01-19 15:53 METAR KELM 192053Z 24010KT 10SM CLR 06/M07 A2987 RMK AO2 SLP129 T00561067 56013
                 =
2018-01-19 14:53 METAR KELM 191953Z AUTO 23011KT 10SM CLR 04/M07 A2988 RMK AO2 SLP130 T00441072 =
2018-01-19 13:53 METAR KELM 191853Z 24007KT 10SM CLR 03/M07 A2989 RMK AO2 SLP135 T00281072 =
2018-01-19 12:53 METAR KELM 191753Z 24007KT 10SM CLR 01/M08 A2991 RMK AO2 SLP143 T00111083 10011
                 21139 58022 =
2018-01-19 11:53 METAR KELM 191653Z 23009KT 10SM CLR M01/M09 A2995 RMK AO2 SLP157 T10061089 =
2018-01-19 10:53 METAR KELM 191553Z 24010KT 10SM CLR M02/M09 A2998 RMK AO2 SLP167 T10171089 =

Support USWX by starting your Amazon purchase here.